sensor_id;sensor_type;location;lat;lon;timestamp;pressure;altitude;pressure_sealevel;temperature;humidity
42067;BME280;27734;47.028;28.820;2024-01-06T00:00:54;100510.08;;;2.26;67.33
42067;BME280;27734;47.028;28.820;2024-01-06T00:03:45;100514.48;;;2.27;67.27
42067;BME280;27734;47.028;28.820;2024-01-06T00:06:16;100512.98;;;2.30;67.59
42067;BME280;27734;47.028;28.820;2024-01-06T00:08:47;100508.94;;;2.34;67.60
42067;BME280;27734;47.028;28.820;2024-01-06T00:11:23;100516.81;;;2.36;67.44
42067;BME280;27734;47.028;28.820;2024-01-06T00:13:54;100528.16;;;2.38;67.72
42067;BME280;27734;47.028;28.820;2024-01-06T00:16:26;100515.42;;;2.41;67.55
42067;BME280;27734;47.028;28.820;2024-01-06T00:18:59;100506.98;;;2.43;67.64
42067;BME280;27734;47.028;28.820;2024-01-06T00:21:32;100513.05;;;2.44;68.30
42067;BME280;27734;47.028;28.820;2024-01-06T00:24:04;100512.16;;;2.43;67.34
42067;BME280;27734;47.028;28.820;2024-01-06T00:26:37;100517.34;;;2.43;67.43
42067;BME280;27734;47.028;28.820;2024-01-06T00:29:08;100516.52;;;2.44;67.85
42067;BME280;27734;47.028;28.820;2024-01-06T00:31:39;100517.45;;;2.45;68.15
42067;BME280;27734;47.028;28.820;2024-01-06T00:34:11;100521.91;;;2.47;67.88
42067;BME280;27734;47.028;28.820;2024-01-06T00:36:42;100512.47;;;2.48;68.20
42067;BME280;27734;47.028;28.820;2024-01-06T00:39:13;100506.27;;;2.46;67.47
42067;BME280;27734;47.028;28.820;2024-01-06T00:41:44;100497.61;;;2.45;67.92
42067;BME280;27734;47.028;28.820;2024-01-06T00:44:15;100495.70;;;2.43;68.05
42067;BME280;27734;47.028;28.820;2024-01-06T00:46:47;100504.18;;;2.40;67.99
42067;BME280;27734;47.028;28.820;2024-01-06T00:49:20;100508.44;;;2.40;68.23
42067;BME280;27734;47.028;28.820;2024-01-06T00:51:51;100488.44;;;2.37;67.87
42067;BME280;27734;47.028;28.820;2024-01-06T00:54:22;100491.80;;;2.36;68.70
42067;BME280;27734;47.028;28.820;2024-01-06T00:56:53;100485.73;;;2.36;68.12
42067;BME280;27734;47.028;28.820;2024-01-06T00:59:24;100481.34;;;2.34;68.07
42067;BME280;27734;47.028;28.820;2024-01-06T01:01:57;100469.98;;;2.32;67.78
42067;BME280;27734;47.028;28.820;2024-01-06T01:04:28;100471.55;;;2.30;69.63
42067;BME280;27734;47.028;28.820;2024-01-06T01:06:59;100475.74;;;2.28;68.29
42067;BME280;27734;47.028;28.820;2024-01-06T01:09:30;100476.42;;;2.26;68.72
42067;BME280;27734;47.028;28.820;2024-01-06T01:12:02;100471.03;;;2.23;68.63
42067;BME280;27734;47.028;28.820;2024-01-06T01:14:33;100466.67;;;2.22;68.67
42067;BME280;27734;47.028;28.820;2024-01-06T01:17:04;100476.10;;;2.21;67.87
42067;BME280;27734;47.028;28.820;2024-01-06T01:19:36;100470.72;;;2.18;68.11
42067;BME280;27734;47.028;28.820;2024-01-06T01:22:07;100474.12;;;2.17;68.63
42067;BME280;27734;47.028;28.820;2024-01-06T01:24:38;100462.73;;;2.15;68.36
42067;BME280;27734;47.028;28.820;2024-01-06T01:27:10;100463.66;;;2.15;68.63
42067;BME280;27734;47.028;28.820;2024-01-06T01:29:41;100457.45;;;2.13;68.14
42067;BME280;27734;47.028;28.820;2024-01-06T01:32:12;100455.58;;;2.11;68.74
42067;BME280;27734;47.028;28.820;2024-01-06T01:34:43;100455.47;;;2.09;69.15
42067;BME280;27734;47.028;28.820;2024-01-06T01:37:14;100455.47;;;2.09;68.75
42067;BME280;27734;47.028;28.820;2024-01-06T01:39:46;100448.59;;;2.10;68.93
42067;BME280;27734;47.028;28.820;2024-01-06T01:42:17;100444.33;;;2.10;68.37
42067;BME280;27734;47.028;28.820;2024-01-06T01:44:48;100442.73;;;2.12;68.47
42067;BME280;27734;47.028;28.820;2024-01-06T01:47:19;100439.23;;;2.12;68.71
42067;BME280;27734;47.028;28.820;2024-01-06T01:49:51;100440.83;;;2.10;68.67
42067;BME280;27734;47.028;28.820;2024-01-06T01:52:23;100442.53;;;2.09;69.16
42067;BME280;27734;47.028;28.820;2024-01-06T01:54:54;100439.83;;;2.08;68.62
42067;BME280;27734;47.028;28.820;2024-01-06T01:57:26;100432.95;;;2.08;68.37
42067;BME280;27734;47.028;28.820;2024-01-06T02:00:01;100431.39;;;2.10;68.44
42067;BME280;27734;47.028;28.820;2024-01-06T02:02:41;100427.98;;;2.11;69.01
42067;BME280;27734;47.028;28.820;2024-01-06T02:05:13;100421.92;;;2.11;69.06
42067;BME280;27734;47.028;28.820;2024-01-06T02:07:44;100420.11;;;2.10;69.14
42067;BME280;27734;47.028;28.820;2024-01-06T02:10:17;100420.11;;;2.10;69.25
42067;BME280;27734;47.028;28.820;2024-01-06T02:12:49;100407.98;;;2.09;69.64
42067;BME280;27734;47.028;28.820;2024-01-06T02:15:21;100402.81;;;2.09;70.42
42067;BME280;27734;47.028;28.820;2024-01-06T02:17:53;100402.00;;;2.10;69.57
42067;BME280;27734;47.028;28.820;2024-01-06T02:20:25;100399.30;;;2.08;69.70
42067;BME280;27734;47.028;28.820;2024-01-06T02:22:57;100397.53;;;2.07;69.68
42067;BME280;27734;47.028;28.820;2024-01-06T02:25:30;100391.64;;;2.10;69.80
42067;BME280;27734;47.028;28.820;2024-01-06T02:28:01;100390.96;;;2.12;69.03
42067;BME280;27734;47.028;28.820;2024-01-06T02:30:32;100389.36;;;2.14;69.67
42067;BME280;27734;47.028;28.820;2024-01-06T02:33:05;100380.81;;;2.15;69.74
42067;BME280;27734;47.028;28.820;2024-01-06T02:35:36;100384.29;;;2.16;70.18
42067;BME280;27734;47.028;28.820;2024-01-06T02:38:07;100374.72;;;2.15;70.24
42067;BME280;27734;47.028;28.820;2024-01-06T02:40:39;100384.09;;;2.13;69.96
42067;BME280;27734;47.028;28.820;2024-01-06T02:43:12;100380.61;;;2.12;70.22
42067;BME280;27734;47.028;28.820;2024-01-06T02:45:43;100381.39;;;2.11;70.01
42067;BME280;27734;47.028;28.820;2024-01-06T02:48:17;100381.39;;;2.11;70.32
42067;BME280;27734;47.028;28.820;2024-01-06T02:50:48;100381.39;;;2.11;70.11
42067;BME280;27734;47.028;28.820;2024-01-06T02:53:19;100376.22;;;2.11;70.11
42067;BME280;27734;47.028;28.820;2024-01-06T02:55:54;100380.61;;;2.12;70.46
42067;BME280;27734;47.028;28.820;2024-01-06T02:58:25;100377.92;;;2.11;70.04
42067;BME280;27734;47.028;28.820;2024-01-06T03:00:56;100374.44;;;2.10;70.21
42067;BME280;27734;47.028;28.820;2024-01-06T03:03:31;100371.92;;;2.12;70.36
42067;BME280;27734;47.028;28.820;2024-01-06T03:06:03;100373.63;;;2.11;70.14
42067;BME280;27734;47.028;28.820;2024-01-06T03:08:36;100370.25;;;2.12;70.53
42067;BME280;27734;47.028;28.820;2024-01-06T03:11:07;100373.83;;;2.14;70.40
42067;BME280;27734;47.028;28.820;2024-01-06T03:13:38;100374.04;;;2.18;70.33
42067;BME280;27734;47.028;28.820;2024-01-06T03:16:10;100373.05;;;2.15;69.85
42067;BME280;27734;47.028;28.820;2024-01-06T03:18:42;100370.56;;;2.17;70.51
42067;BME280;27734;47.028;28.820;2024-01-06T03:21:19;100367.88;;;2.15;69.92
42067;BME280;27734;47.028;28.820;2024-01-06T03:23:51;100363.48;;;2.14;70.34
42067;BME280;27734;47.028;28.820;2024-01-06T03:26:22;100366.06;;;2.14;70.37
42067;BME280;27734;47.028;28.820;2024-01-06T03:28:54;100360.11;;;2.15;70.39
42067;BME280;27734;47.028;28.820;2024-01-06T03:31:25;100349.85;;;2.17;70.42
42067;BME280;27734;47.028;28.820;2024-01-06T03:33:56;100348.94;;;2.16;70.49
42067;BME280;27734;47.028;28.820;2024-01-06T03:36:28;100356.70;;;2.16;70.88
42067;BME280;27734;47.028;28.820;2024-01-06T03:38:59;100349.65;;;2.14;70.82
42067;BME280;27734;47.028;28.820;2024-01-06T03:41:30;100360.11;;;2.15;70.77
42067;BME280;27734;47.028;28.820;2024-01-06T03:44:01;100354.62;;;2.11;70.97
42067;BME280;27734;47.028;28.820;2024-01-06T03:46:33;100350.33;;;2.11;71.03
42067;BME280;27734;47.028;28.820;2024-01-06T03:49:04;100351.14;;;2.10;71.01
42067;BME280;27734;47.028;28.820;2024-01-06T03:51:35;100344.27;;;2.11;70.70
42067;BME280;27734;47.028;28.820;2024-01-06T03:54:06;100344.16;;;2.09;70.77
42067;BME280;27734;47.028;28.820;2024-01-06T03:56:38;100341.37;;;2.06;70.88
42067;BME280;27734;47.028;28.820;2024-01-06T03:59:09;100345.55;;;2.04;71.04
42067;BME280;27734;47.028;28.820;2024-01-06T04:01:41;100349.81;;;2.04;70.74
42067;BME280;27734;47.028;28.820;2024-01-06T04:04:12;100339.15;;;1.99;70.85
42067;BME280;27734;47.028;28.820;2024-01-06T04:06:43;100332.88;;;1.95;71.41
42067;BME280;27734;47.028;28.820;2024-01-06T04:09:14;100332.78;;;1.94;71.02
42067;BME280;27734;47.028;28.820;2024-01-06T04:11:45;100328.39;;;1.93;71.05
42067;BME280;27734;47.028;28.820;2024-01-06T04:14:17;100325.59;;;1.90;71.21
42067;BME280;27734;47.028;28.820;2024-01-06T04:16:48;100319.63;;;1.91;71.47
42067;BME280;27734;47.028;28.820;2024-01-06T04:19:19;100320.31;;;1.88;71.25
42067;BME280;27734;47.028;28.820;2024-01-06T04:21:50;100316.05;;;1.89;71.24
42067;BME280;27734;47.028;28.820;2024-01-06T04:24:21;100324.03;;;1.92;71.48
42067;BME280;27734;47.028;28.820;2024-01-06T04:26:52;100313.98;;;1.96;71.52
42067;BME280;27734;47.028;28.820;2024-01-06T04:29:23;100316.16;;;2.04;71.31
42067;BME280;27734;47.028;28.820;2024-01-06T04:31:55;100317.56;;;2.12;71.59
42067;BME280;27734;47.028;28.820;2024-01-06T04:34:26;100320.56;;;2.18;71.62
42067;BME280;27734;47.028;28.820;2024-01-06T04:36:57;100310.71;;;2.26;71.38
42067;BME280;27734;47.028;28.820;2024-01-06T04:39:30;100307.64;;;2.31;71.54
42067;BME280;27734;47.028;28.820;2024-01-06T04:42:02;100307.16;;;2.37;72.13
42067;BME280;27734;47.028;28.820;2024-01-06T04:44:33;100307.36;;;2.40;71.87
42067;BME280;27734;47.028;28.820;2024-01-06T04:47:05;100302.38;;;2.43;71.51
42067;BME280;27734;47.028;28.820;2024-01-06T04:49:36;100301.66;;;2.46;71.87
42067;BME280;27734;47.028;28.820;2024-01-06T04:52:07;100297.50;;;2.48;71.85
42067;BME280;27734;47.028;28.820;2024-01-06T04:54:38;100310.84;;;2.54;72.07
42067;BME280;27734;47.028;28.820;2024-01-06T04:57:09;100308.45;;;2.57;72.48
42067;BME280;27734;47.028;28.820;2024-01-06T04:59:40;100303.37;;;2.59;72.13
42067;BME280;27734;47.028;28.820;2024-01-06T05:02:12;100297.37;;;2.60;72.44
42067;BME280;27734;47.028;28.820;2024-01-06T05:04:43;100293.30;;;2.63;72.72
42067;BME280;27734;47.028;28.820;2024-01-06T05:07:15;100286.61;;;2.67;72.05
42067;BME280;27734;47.028;28.820;2024-01-06T05:09:46;100292.19;;;2.73;72.44
42067;BME280;27734;47.028;28.820;2024-01-06T05:12:17;100295.76;;;2.75;72.18
42067;BME280;27734;47.028;28.820;2024-01-06T05:14:48;100286.18;;;2.74;72.77
42067;BME280;27734;47.028;28.820;2024-01-06T05:17:19;100279.33;;;2.75;72.22
42067;BME280;27734;47.028;28.820;2024-01-06T05:19:51;100287.20;;;2.76;72.96
42067;BME280;27734;47.028;28.820;2024-01-06T05:22:22;100292.58;;;2.79;72.86
42067;BME280;27734;47.028;28.820;2024-01-06T05:24:53;100283.38;;;2.84;73.06
42067;BME280;27734;47.028;28.820;2024-01-06T05:27:25;100283.58;;;2.87;73.17
42067;BME280;27734;47.028;28.820;2024-01-06T05:29:56;100290.86;;;2.93;73.10
42067;BME280;27734;47.028;28.820;2024-01-06T05:32:27;100294.52;;;2.97;73.18
42067;BME280;27734;47.028;28.820;2024-01-06T05:34:58;100287.73;;;2.99;72.86
42067;BME280;27734;47.028;28.820;2024-01-06T05:37:29;100285.33;;;3.02;73.32
42067;BME280;27734;47.028;28.820;2024-01-06T05:40:01;100273.48;;;3.05;73.51
42067;BME280;27734;47.028;28.820;2024-01-06T05:42:33;100276.36;;;3.10;73.30
42067;BME280;27734;47.028;28.820;2024-01-06T05:45:05;100273.12;;;3.14;73.16
42067;BME280;27734;47.028;28.820;2024-01-06T05:47:37;100271.52;;;3.16;73.94
42067;BME280;27734;47.028;28.820;2024-01-06T05:50:09;100270.73;;;3.17;73.57
42067;BME280;27734;47.028;28.820;2024-01-06T05:52:41;100269.94;;;3.18;73.61
42067;BME280;27734;47.028;28.820;2024-01-06T05:55:12;100275.41;;;3.23;74.11
42067;BME280;27734;47.028;28.820;2024-01-06T05:57:43;100262.53;;;3.24;74.32
42067;BME280;27734;47.028;28.820;2024-01-06T06:00:16;100264.39;;;3.27;74.31
42067;BME280;27734;47.028;28.820;2024-01-06T06:02:47;100275.88;;;3.31;75.51
42067;BME280;27734;47.028;28.820;2024-01-06T06:05:19;100266.48;;;3.33;75.18
42067;BME280;27734;47.028;28.820;2024-01-06T06:07:50;100265.78;;;3.35;74.72
42067;BME280;27734;47.028;28.820;2024-01-06T06:10:21;100270.97;;;3.35;75.16
42067;BME280;27734;47.028;28.820;2024-01-06T06:12:52;100275.52;;;3.39;75.45
42067;BME280;27734;47.028;28.820;2024-01-06T06:15:24;100260.05;;;3.41;75.94
42067;BME280;27734;47.028;28.820;2024-01-06T06:17:55;100266.16;;;3.41;75.64
42067;BME280;27734;47.028;28.820;2024-01-06T06:20:27;100262.64;;;3.41;76.48
42067;BME280;27734;47.028;28.820;2024-01-06T06:22:58;100257.55;;;3.42;76.19
42067;BME280;27734;47.028;28.820;2024-01-06T06:25:29;100255.14;;;3.46;76.33
42067;BME280;27734;47.028;28.820;2024-01-06T06:28:01;100251.84;;;3.48;76.73
42067;BME280;27734;47.028;28.820;2024-01-06T06:30:33;100242.44;;;3.50;76.30
42067;BME280;27734;47.028;28.820;2024-01-06T06:33:04;100247.02;;;3.54;76.41
42067;BME280;27734;47.028;28.820;2024-01-06T06:35:37;100241.22;;;3.58;76.36
42067;BME280;27734;47.028;28.820;2024-01-06T06:38:08;100238.91;;;3.63;77.02
42067;BME280;27734;47.028;28.820;2024-01-06T06:40:39;100238.99;;;3.65;76.57
42067;BME280;27734;47.028;28.820;2024-01-06T06:43:11;100230.38;;;3.66;76.69
42067;BME280;27734;47.028;28.820;2024-01-06T06:45:42;100226.20;;;3.68;77.76
42067;BME280;27734;47.028;28.820;2024-01-06T06:48:16;100235.94;;;3.72;77.07
42067;BME280;27734;47.028;28.820;2024-01-06T06:50:47;100238.62;;;3.73;77.06
42067;BME280;27734;47.028;28.820;2024-01-06T06:53:18;100244.17;;;3.80;77.07
42067;BME280;27734;47.028;28.820;2024-01-06T06:55:49;100241.84;;;3.84;78.33
42067;BME280;27734;47.028;28.820;2024-01-06T06:58:21;100237.02;;;3.90;77.32
42067;BME280;27734;47.028;28.820;2024-01-06T07:00:53;100238.98;;;3.94;77.40
42067;BME280;27734;47.028;28.820;2024-01-06T07:03:24;100236.66;;;3.99;78.03
42067;BME280;27734;47.028;28.820;2024-01-06T07:05:56;100236.09;;;4.05;77.69
42067;BME280;27734;47.028;28.820;2024-01-06T07:08:27;100232.09;;;4.10;78.13
42067;BME280;27734;47.028;28.820;2024-01-06T07:10:59;100233.06;;;4.12;77.72
42067;BME280;27734;47.028;28.820;2024-01-06T07:13:31;100238.52;;;4.17;78.90
42067;BME280;27734;47.028;28.820;2024-01-06T07:16:08;100236.98;;;4.20;78.66
42067;BME280;27734;47.028;28.820;2024-01-06T07:18:39;100227.64;;;4.24;78.91
42067;BME280;27734;47.028;28.820;2024-01-06T07:21:13;100223.55;;;4.27;78.48
42067;BME280;27734;47.028;28.820;2024-01-06T07:23:44;100220.28;;;4.31;78.60
42067;BME280;27734;47.028;28.820;2024-01-06T07:26:15;100225.66;;;4.35;79.18
42067;BME280;27734;47.028;28.820;2024-01-06T07:28:47;100220.55;;;4.36;78.90
42067;BME280;27734;47.028;28.820;2024-01-06T07:31:18;100221.72;;;4.41;79.18
42067;BME280;27734;47.028;28.820;2024-01-06T07:33:49;100217.58;;;4.45;79.79
42067;BME280;27734;47.028;28.820;2024-01-06T07:36:21;100218.80;;;4.52;79.65
42067;BME280;27734;47.028;28.820;2024-01-06T07:38:52;100209.50;;;4.55;79.11
42067;BME280;27734;47.028;28.820;2024-01-06T07:41:24;100207.16;;;4.60;79.70
42067;BME280;27734;47.028;28.820;2024-01-06T07:43:55;100208.20;;;4.63;79.96
42067;BME280;27734;47.028;28.820;2024-01-06T07:46:27;100214.62;;;4.70;79.88
42067;BME280;27734;47.028;28.820;2024-01-06T07:48:58;100214.07;;;4.76;79.97
42067;BME280;27734;47.028;28.820;2024-01-06T07:51:29;100214.41;;;4.82;79.43
42067;BME280;27734;47.028;28.820;2024-01-06T07:54:01;100214.73;;;4.88;80.22
42067;BME280;27734;47.028;28.820;2024-01-06T07:56:32;100197.59;;;4.92;80.17
42067;BME280;27734;47.028;28.820;2024-01-06T07:59:03;100201.98;;;4.93;79.77
42067;BME280;27734;47.028;28.820;2024-01-06T08:01:35;100208.15;;;4.95;80.78
42067;BME280;27734;47.028;28.820;2024-01-06T08:04:06;100192.80;;;4.99;80.04
42067;BME280;27734;47.028;28.820;2024-01-06T08:06:38;100198.23;;;5.04;80.38
42067;BME280;27734;47.028;28.820;2024-01-06T08:09:11;100201.16;;;5.10;80.12
42067;BME280;27734;47.028;28.820;2024-01-06T08:11:42;100200.45;;;5.13;80.76
42067;BME280;27734;47.028;28.820;2024-01-06T08:14:15;100204.97;;;5.17;80.86
42067;BME280;27734;47.028;28.820;2024-01-06T08:16:47;100210.26;;;5.18;80.68
42067;BME280;27734;47.028;28.820;2024-01-06T08:19:18;100206.05;;;5.20;81.01
42067;BME280;27734;47.028;28.820;2024-01-06T08:21:49;100197.49;;;5.23;81.18
42067;BME280;27734;47.028;28.820;2024-01-06T08:24:20;100189.05;;;5.27;80.63
42067;BME280;27734;47.028;28.820;2024-01-06T08:26:51;100191.97;;;5.33;81.11
42067;BME280;27734;47.028;28.820;2024-01-06T08:29:23;100186.92;;;5.36;80.85
42067;BME280;27734;47.028;28.820;2024-01-06T08:31:56;100183.72;;;5.42;81.02
42067;BME280;27734;47.028;28.820;2024-01-06T08:34:27;100176.14;;;5.47;81.34
42067;BME280;27734;47.028;28.820;2024-01-06T08:36:59;100167.77;;;5.52;81.02
42067;BME280;27734;47.028;28.820;2024-01-06T08:39:30;100172.40;;;5.58;81.30
42067;BME280;27734;47.028;28.820;2024-01-06T08:42:01;100170.11;;;5.64;81.75
42067;BME280;27734;47.028;28.820;2024-01-06T08:44:32;100159.84;;;5.67;82.02
42067;BME280;27734;47.028;28.820;2024-01-06T08:47:04;100143.55;;;5.71;81.66
42067;BME280;27734;47.028;28.820;2024-01-06T08:49:36;100141.16;;;5.76;81.93
42067;BME280;27734;47.028;28.820;2024-01-06T08:52:07;100139.59;;;5.80;81.96
42067;BME280;27734;47.028;28.820;2024-01-06T08:54:39;100133.73;;;5.84;82.12
42067;BME280;27734;47.028;28.820;2024-01-06T08:57:10;100120.12;;;5.89;81.85
42067;BME280;27734;47.028;28.820;2024-01-06T08:59:41;100121.30;;;5.96;82.06
42067;BME280;27734;47.028;28.820;2024-01-06T09:02:12;100115.55;;;6.02;82.22
42067;BME280;27734;47.028;28.820;2024-01-06T09:04:43;100107.95;;;6.06;82.63
42067;BME280;27734;47.028;28.820;2024-01-06T09:07:15;100104.64;;;6.10;82.43
42067;BME280;27734;47.028;28.820;2024-01-06T09:09:47;100110.15;;;6.17;82.05
42067;BME280;27734;47.028;28.820;2024-01-06T09:12:18;100105.23;;;6.23;82.11
42067;BME280;27734;47.028;28.820;2024-01-06T09:14:50;100104.63;;;6.28;82.16
42067;BME280;27734;47.028;28.820;2024-01-06T09:17:21;100104.08;;;6.36;82.06
42067;BME280;27734;47.028;28.820;2024-01-06T09:19:56;100102.66;;;6.42;82.29
42067;BME280;27734;47.028;28.820;2024-01-06T09:22:28;100099.36;;;6.46;83.66
42067;BME280;27734;47.028;28.820;2024-01-06T09:24:59;100089.77;;;6.45;82.71
42067;BME280;27734;47.028;28.820;2024-01-06T09:27:30;100092.59;;;6.50;82.54
42067;BME280;27734;47.028;28.820;2024-01-06T09:30:02;100088.75;;;6.61;82.78
42067;BME280;27734;47.028;28.820;2024-01-06T09:32:34;100086.62;;;6.72;82.37
42067;BME280;27734;47.028;28.820;2024-01-06T09:35:06;100085.50;;;6.87;82.26
42067;BME280;27734;47.028;28.820;2024-01-06T09:37:37;100085.23;;;7.00;82.50
42067;BME280;27734;47.028;28.820;2024-01-06T09:40:13;100083.96;;;7.11;82.58
42067;BME280;27734;47.028;28.820;2024-01-06T09:42:44;100084.48;;;7.24;82.96
42067;BME280;27734;47.028;28.820;2024-01-06T09:45:15;100079.78;;;7.36;82.29
42067;BME280;27734;47.028;28.820;2024-01-06T09:47:50;100081.93;;;7.46;82.30
42067;BME280;27734;47.028;28.820;2024-01-06T09:50:22;100069.38;;;7.59;82.46
42067;BME280;27734;47.028;28.820;2024-01-06T09:52:54;100057.61;;;7.68;82.21
42067;BME280;27734;47.028;28.820;2024-01-06T09:55:35;100048.59;;;7.83;82.87
42067;BME280;27734;47.028;28.820;2024-01-06T09:58:07;100047.34;;;7.96;83.02
42067;BME280;27734;47.028;28.820;2024-01-06T10:00:40;100045.20;;;8.08;83.03
42067;BME280;27734;47.028;28.820;2024-01-06T10:03:11;100038.77;;;8.22;82.43
42067;BME280;27734;47.028;28.820;2024-01-06T10:05:43;100037.48;;;8.34;82.33
42067;BME280;27734;47.028;28.820;2024-01-06T10:08:14;100025.34;;;8.36;82.48
42067;BME280;27734;47.028;28.820;2024-01-06T10:10:47;100016.08;;;8.44;82.86
42067;BME280;27734;47.028;28.820;2024-01-06T10:13:19;100014.52;;;8.49;82.50
42067;BME280;27734;47.028;28.820;2024-01-06T10:15:50;100017.30;;;8.54;82.30
42067;BME280;27734;47.028;28.820;2024-01-06T10:18:22;100017.58;;;8.61;82.54
42067;BME280;27734;47.028;28.820;2024-01-06T10:20:53;100004.88;;;8.72;82.50
42067;BME280;27734;47.028;28.820;2024-01-06T10:23:25;100007.16;;;8.87;83.17
42067;BME280;27734;47.028;28.820;2024-01-06T10:25:57;100008.41;;;8.98;83.05
42067;BME280;27734;47.028;28.820;2024-01-06T10:28:28;100006.09;;;9.08;82.71
42067;BME280;27734;47.028;28.820;2024-01-06T10:31:00;100000.19;;;9.13;82.54
42067;BME280;27734;47.028;28.820;2024-01-06T10:33:34;99996.87;;;9.19;82.21
42067;BME280;27734;47.028;28.820;2024-01-06T10:36:06;99990.95;;;9.25;82.19
42067;BME280;27734;47.028;28.820;2024-01-06T10:38:39;99990.28;;;9.30;82.30
42067;BME280;27734;47.028;28.820;2024-01-06T10:41:12;99975.45;;;9.31;82.25
42067;BME280;27734;47.028;28.820;2024-01-06T10:43:46;99962.41;;;9.32;82.03
42067;BME280;27734;47.028;28.820;2024-01-06T10:46:20;99964.09;;;9.30;82.13
42067;BME280;27734;47.028;28.820;2024-01-06T10:48:55;99958.86;;;9.30;81.84
42067;BME280;27734;47.028;28.820;2024-01-06T10:51:28;99954.41;;;9.28;82.35
42067;BME280;27734;47.028;28.820;2024-01-06T10:54:02;99944.81;;;9.28;81.75
42067;BME280;27734;47.028;28.820;2024-01-06T10:56:37;99946.50;;;9.26;81.96
42067;BME280;27734;47.028;28.820;2024-01-06T10:59:10;99935.93;;;9.23;82.11
42067;BME280;27734;47.028;28.820;2024-01-06T11:01:43;99921.20;;;9.27;82.32
42067;BME280;27734;47.028;28.820;2024-01-06T11:04:15;99926.63;;;9.33;81.98
42067;BME280;27734;47.028;28.820;2024-01-06T11:06:47;99936.32;;;9.35;81.90
42067;BME280;27734;47.028;28.820;2024-01-06T11:09:21;99916.92;;;9.29;82.07
42067;BME280;27734;47.028;28.820;2024-01-06T11:11:54;99915.77;;;9.21;82.11
42067;BME280;27734;47.028;28.820;2024-01-06T11:14:27;99931.38;;;9.17;81.52
42067;BME280;27734;47.028;28.820;2024-01-06T11:16:59;99920.91;;;9.17;82.16
42067;BME280;27734;47.028;28.820;2024-01-06T11:19:46;99919.20;;;9.18;82.14
42067;BME280;27734;47.028;28.820;2024-01-06T11:22:25;99921.91;;;9.21;81.61
42067;BME280;27734;47.028;28.820;2024-01-06T11:25:04;99914.89;;;9.20;82.00
42067;BME280;27734;47.028;28.820;2024-01-06T11:27:37;99920.02;;;9.17;82.01
42067;BME280;27734;47.028;28.820;2024-01-06T11:30:09;99913.77;;;9.12;81.38
42067;BME280;27734;47.028;28.820;2024-01-06T11:32:49;99922.45;;;9.11;81.98
42067;BME280;27734;47.028;28.820;2024-01-06T11:35:26;99912.08;;;9.14;81.66
42067;BME280;27734;47.028;28.820;2024-01-06T11:38:00;99909.55;;;9.17;81.93
42067;BME280;27734;47.028;28.820;2024-01-06T11:40:35;99894.68;;;9.16;81.84
42067;BME280;27734;47.028;28.820;2024-01-06T11:43:08;99897.30;;;9.16;81.45
42067;BME280;27734;47.028;28.820;2024-01-06T11:45:41;99898.25;;;9.18;81.52
42067;BME280;27734;47.028;28.820;2024-01-06T11:48:13;99900.77;;;9.15;81.76
42067;BME280;27734;47.028;28.820;2024-01-06T11:50:48;99905.81;;;9.09;81.73
42067;BME280;27734;47.028;28.820;2024-01-06T11:53:20;99908.28;;;9.04;81.30
42067;BME280;27734;47.028;28.820;2024-01-06T11:55:51;99900.28;;;8.99;81.75
42067;BME280;27734;47.028;28.820;2024-01-06T11:58:22;99901.87;;;8.94;81.14
42067;BME280;27734;47.028;28.820;2024-01-06T12:01:03;99891.30;;;8.91;81.71
42067;BME280;27734;47.028;28.820;2024-01-06T12:03:34;99890.39;;;8.91;81.28
42067;BME280;27734;47.028;28.820;2024-01-06T12:06:06;99893.92;;;8.91;81.36
42067;BME280;27734;47.028;28.820;2024-01-06T12:08:37;99884.38;;;8.93;81.38
42067;BME280;27734;47.028;28.820;2024-01-06T12:11:09;99882.64;;;8.94;81.66
42067;BME280;27734;47.028;28.820;2024-01-06T12:13:40;99874.84;;;8.95;81.31
42067;BME280;27734;47.028;28.820;2024-01-06T12:16:11;99878.38;;;8.97;82.13
42067;BME280;27734;47.028;28.820;2024-01-06T12:18:42;99871.55;;;9.01;81.77
42067;BME280;27734;47.028;28.820;2024-01-06T12:21:13;99875.19;;;9.06;81.98
42067;BME280;27734;47.028;28.820;2024-01-06T12:23:45;99883.09;;;9.08;82.03
42067;BME280;27734;47.028;28.820;2024-01-06T12:26:18;99881.30;;;9.07;81.76
42067;BME280;27734;47.028;28.820;2024-01-06T12:28:50;99876.97;;;9.07;81.79
42067;BME280;27734;47.028;28.820;2024-01-06T12:31:22;99868.21;;;9.07;81.66
42067;BME280;27734;47.028;28.820;2024-01-06T12:33:53;99862.93;;;9.05;81.37
42067;BME280;27734;47.028;28.820;2024-01-06T12:36:25;99864.63;;;9.03;81.72
42067;BME280;27734;47.028;28.820;2024-01-06T12:38:56;99867.14;;;9.00;81.87
42067;BME280;27734;47.028;28.820;2024-01-06T12:41:29;99855.75;;;8.98;81.41
42067;BME280;27734;47.028;28.820;2024-01-06T12:44:00;99858.31;;;8.96;81.82
42067;BME280;27734;47.028;28.820;2024-01-06T12:46:31;99856.42;;;8.92;82.04
42067;BME280;27734;47.028;28.820;2024-01-06T12:49:03;99850.27;;;8.90;81.67
42067;BME280;27734;47.028;28.820;2024-01-06T12:51:34;99859.75;;;8.87;81.44
42067;BME280;27734;47.028;28.820;2024-01-06T12:54:06;99857.92;;;8.84;81.82
42067;BME280;27734;47.028;28.820;2024-01-06T12:56:37;99859.66;;;8.84;81.78
42067;BME280;27734;47.028;28.820;2024-01-06T12:59:08;99862.22;;;8.82;82.26
42067;BME280;27734;47.028;28.820;2024-01-06T13:01:41;99845.61;;;8.81;81.77
42067;BME280;27734;47.028;28.820;2024-01-06T13:04:12;99838.67;;;8.82;81.76
42067;BME280;27734;47.028;28.820;2024-01-06T13:06:43;99837.77;;;8.81;81.69
42067;BME280;27734;47.028;28.820;2024-01-06T13:09:15;99835.10;;;8.80;82.44
42067;BME280;27734;47.028;28.820;2024-01-06T13:11:47;99839.45;;;8.79;81.86
42067;BME280;27734;47.028;28.820;2024-01-06T13:14:19;99834.17;;;8.78;82.56
42067;BME280;27734;47.028;28.820;2024-01-06T13:16:51;99832.28;;;8.74;82.03